| time (UTC) | temp C | wind direction | speed KPH | gust KPH | rain 1hr cm | rain 24hr cm | rain mn cm | humidity % | barometer mb |
| 20260510070016 | 11 | 146 | 0.0 | 1.6 | 0.00 | 0.00 | 0.00 | 73 | 1012.1 |
| 20260510064519 | 12 | 146 | 0.0 | 3.2 | 0.00 | 0.00 | 0.00 | 71 | 1012.1 |
| 20260510063017 | 12 | 246 | 0.0 | 3.2 | 0.00 | 0.00 | 0.00 | 71 | 1012.1 |
| 20260510061514 | 12 | 143 | 1.6 | 4.8 | 0.00 | 0.00 | 0.00 | 72 | 1012.1 |
| 20260510060013 | 12 | 160 | 0.0 | 1.6 | 0.00 | 0.00 | 0.00 | 71 | 1011.9 |
| 20260510054513 | 13 | 170 | 1.6 | 6.4 | 0.00 | 0.00 | 0.00 | 68 | 1011.8 |
| 20260510053011 | 15 | 4 | 3.2 | 9.7 | 0.00 | 0.00 | 0.00 | 65 | 1012.0 |
| 20260510051507 | 13 | 250 | 1.6 | 9.7 | 0.00 | 0.00 | 0.00 | 69 | 1012.0 |
| 20260510050002 | 11 | 77 | 0.0 | 4.8 | 0.00 | 0.00 | 0.00 | 74 | 1012.3 |
| 20260510044600 | 10 | 253 | 0.0 | 1.6 | 0.00 | 0.00 | 0.00 | 76 | 1012.4 |
| 20260510043111 | 10 | 253 | 0.0 | 1.6 | 0.00 | 0.00 | 0.00 | 76 | 1012.4 |
| 20260510041555 | 10 | 253 | 0.0 | 3.2 | 0.00 | 0.00 | 0.00 | 76 | 1012.4 |
| 20260510040059 | 10 | 253 | 0.0 | 1.6 | 0.00 | 0.00 | 0.00 | 74 | 1012.3 |
| 20260510034557 | 11 | 253 | 0.0 | 1.6 | 0.00 | 0.00 | 0.00 | 73 | 1012.3 |
| 20260510033113 | 11 | 253 | 0.0 | 1.6 | 0.00 | 0.00 | 0.00 | 72 | 1012.5 |
| 20260510031554 | 11 | 253 | 0.0 | 1.6 | 0.00 | 0.00 | 0.00 | 70 | 1012.4 |
| 20260510030055 | 12 | 253 | 0.0 | 1.6 | 0.00 | 0.00 | 0.00 | 66 | 1012.3 |
| 20260510024548 | 13 | 253 | 0.0 | 3.2 | 0.00 | 0.00 | 0.00 | 65 | 1012.0 |
| 20260510023047 | 13 | 252 | 1.6 | 3.2 | 0.00 | 0.00 | 0.00 | 62 | 1011.6 |
| 20260510021546 | 16 | 214 | 1.6 | 8.0 | 0.00 | 0.00 | 0.00 | 54 | 1011.5 |
| 20260510020049 | 17 | 39 | 1.6 | 8.0 | 0.00 | 0.00 | 0.00 | 51 | 1011.2 |
| 20260510014548 | 17 | 276 | 1.6 | 4.8 | 0.00 | 0.00 | 0.00 | 52 | 1011.0 |
| 20260510013044 | 17 | 250 | 1.6 | 8.0 | 0.00 | 0.00 | 0.00 | 52 | 1010.8 |
| 20260510011545 | 16 | 271 | 0.0 | 3.2 | 0.00 | 0.00 | 0.00 | 53 | 1010.5 |
| 20260510010043 | 16 | 228 | 0.0 | 6.4 | 0.00 | 0.00 | 0.00 | 51 | 1010.3 |
| 20260510004543 | 17 | 253 | 0.0 | 9.7 | 0.00 | 0.00 | 0.00 | 47 | 1010.1 |
| 20260510003043 | 19 | 252 | 0.0 | 11.3 | 0.00 | 0.00 | 0.00 | 43 | 1009.8 |
| 20260510001544 | 19 | 248 | 3.2 | 8.0 | 0.00 | 0.00 | 0.00 | 42 | 1009.4 |
| 20260510000059 | 20 | 217 | 4.8 | 11.3 | 0.00 | 0.00 | 0.00 | 43 | 1009.2 |
| 20260509234553 | 20 | 203 | 6.4 | 12.9 | 0.00 | 0.00 | 0.00 | 44 | 1009.0 |
| 20260509233046 | 20 | 277 | 3.2 | 14.5 | 0.00 | 0.00 | 0.00 | 45 | 1008.9 |
| 20260509231543 | 21 | 320 | 3.2 | 12.9 | 0.00 | 0.00 | 0.00 | 46 | 1008.9 |
| 20260509230039 | 22 | 259 | 4.8 | 14.5 | 0.00 | 0.00 | 0.00 | 50 | 1008.8 |
| 20260509224538 | 22 | 238 | 11.3 | 17.7 | 0.00 | 0.00 | 0.00 | 48 | 1008.7 |
| 20260509223041 | 20 | 230 | 8.0 | 12.9 | 0.00 | 0.00 | 0.00 | 56 | 1008.8 |
| 20260509221540 | 21 | 214 | 6.4 | 16.1 | 0.00 | 0.00 | 0.00 | 55 | 1008.8 |
| 20260509220037 | 21 | 254 | 11.3 | 19.3 | 0.00 | 0.00 | 0.00 | 54 | 1008.6 |
| 20260509214536 | 21 | 261 | 9.7 | 17.7 | 0.00 | 0.00 | 0.00 | 53 | 1008.7 |
| 20260509213039 | 22 | 242 | 12.9 | 20.9 | 0.00 | 0.00 | 0.00 | 53 | 1008.5 |
| 20260509211536 | 21 | 257 | 8.0 | 14.5 | 0.00 | 0.00 | 0.00 | 54 | 1008.5 |
| 20260509210040 | 21 | 243 | 11.3 | 17.7 | 0.00 | 0.00 | 0.00 | 55 | 1008.4 |
| 20260509204540 | 21 | 230 | 11.3 | 19.3 | 0.00 | 0.00 | 0.00 | 54 | 1008.3 |
| 20260509203033 | 22 | 244 | 9.7 | 24.1 | 0.00 | 0.00 | 0.00 | 52 | 1008.2 |
| 20260509201536 | 22 | 263 | 9.7 | 22.5 | 0.00 | 0.00 | 0.00 | 51 | 1008.1 |
| 20260509200034 | 22 | 252 | 14.5 | 20.9 | 0.00 | 0.00 | 0.00 | 52 | 1008.0 |
| 20260509194528 | 22 | 231 | 11.3 | 24.1 | 0.00 | 0.00 | 0.00 | 49 | 1008.3 |
| 20260509193028 | 21 | 243 | 9.7 | 25.7 | 0.00 | 0.00 | 0.00 | 55 | 1008.4 |
| 20260509191527 | 21 | 238 | 11.3 | 20.9 | 0.00 | 0.00 | 0.00 | 54 | 1008.7 |
| 20260509190025 | 21 | 276 | 16.1 | 29.0 | 0.00 | 0.00 | 0.00 | 53 | 1008.9 |
| 20260509184534 | 21 | 255 | 12.9 | 27.4 | 0.00 | 0.00 | 0.00 | 53 | 1008.9 |
| 20260509183019 | 20 | 251 | 11.3 | 17.7 | 0.00 | 0.00 | 0.00 | 54 | 1009.0 |
| 20260509181518 | 21 | 243 | 12.9 | 22.5 | 0.00 | 0.00 | 0.00 | 53 | 1009.1 |
| 20260509180017 | 21 | 238 | 12.9 | 19.3 | 0.00 | 0.00 | 0.00 | 49 | 1009.2 |
| 20260509174512 | 20 | 215 | 6.4 | 17.7 | 0.00 | 0.00 | 0.00 | 54 | 1009.4 |
| 20260509173009 | 20 | 249 | 8.0 | 17.7 | 0.00 | 0.00 | 0.00 | 51 | 1009.8 |
| 20260509171508 | 20 | 228 | 11.3 | 19.3 | 0.00 | 0.00 | 0.00 | 51 | 1009.9 |
| 20260509170006 | 20 | 253 | 9.7 | 22.5 | 0.00 | 0.00 | 0.00 | 53 | 1010.1 |
| 20260509164503 | 19 | 203 | 8.0 | 17.7 | 0.00 | 0.00 | 0.00 | 57 | 1010.1 |
| 20260509163002 | 19 | 231 | 9.7 | 24.1 | 0.00 | 0.00 | 0.00 | 56 | 1010.3 |
| 20260509161604 | 18 | 212 | 11.3 | 24.1 | 0.00 | 0.00 | 0.00 | 58 | 1010.2 |
| 20260509160100 | 19 | 238 | 11.3 | 19.3 | 0.00 | 0.00 | 0.00 | 59 | 1010.2 |
| 20260509154558 | 18 | 245 | 14.5 | 20.9 | 0.00 | 0.00 | 0.00 | 56 | 1010.2 |
| 20260509153057 | 19 | 248 | 14.5 | 24.1 | 0.00 | 0.00 | 0.00 | 58 | 1010.3 |
| 20260509151602 | 18 | 220 | 12.9 | 19.3 | 0.00 | 0.00 | 0.00 | 61 | 1010.5 |
| 20260509150053 | 18 | 238 | 14.5 | 22.5 | 0.00 | 0.00 | 0.00 | 60 | 1010.6 |
| 20260509144606 | 17 | 226 | 12.9 | 22.5 | 0.00 | 0.00 | 0.00 | 62 | 1010.4 |
| 20260509143116 | 17 | 264 | 16.1 | 25.7 | 0.00 | 0.00 | 0.00 | 60 | 1010.5 |
| 20260509141548 | 17 | 235 | 12.9 | 19.3 | 0.00 | 0.00 | 0.00 | 63 | 1010.4 |
| 20260509140044 | 16 | 269 | 16.1 | 20.9 | 0.00 | 0.00 | 0.00 | 65 | 1010.5 |
| 20260509134559 | 15 | 220 | 11.3 | 19.3 | 0.00 | 0.00 | 0.00 | 67 | 1010.9 |
| 20260509133042 | 14 | 229 | 12.9 | 19.3 | 0.00 | 0.00 | 0.00 | 67 | 1011.2 |
| 20260509131531 | 14 | 243 | 11.3 | 20.9 | 0.00 | 0.00 | 0.00 | 67 | 1011.4 |
| 20260509130031 | 14 | 243 | 11.3 | 17.7 | 0.00 | 0.00 | 0.00 | 69 | 1011.4 |
| 20260509124527 | 13 | 250 | 11.3 | 17.7 | 0.00 | 0.00 | 0.00 | 67 | 1011.6 |
| 20260509123022 | 13 | 240 | 9.7 | 14.5 | 0.00 | 0.00 | 0.00 | 68 | 1011.8 |
| 20260509121537 | 13 | 255 | 6.4 | 16.1 | 0.00 | 0.00 | 0.00 | 68 | 1011.6 |
| 20260509120015 | 13 | 262 | 9.7 | 16.1 | 0.00 | 0.00 | 0.00 | 68 | 1011.8 |
| 20260509114526 | 13 | 245 | 6.4 | 12.9 | 0.00 | 0.00 | 0.00 | 68 | 1011.8 |
| 20260509113014 | 12 | 248 | 6.4 | 11.3 | 0.00 | 0.00 | 0.00 | 68 | 1011.7 |
| 20260509111504 | 12 | 244 | 6.4 | 11.3 | 0.00 | 0.00 | 0.00 | 68 | 1011.8 |
| 20260509110003 | 12 | 257 | 4.8 | 12.9 | 0.00 | 0.00 | 0.00 | 67 | 1011.8 |
| 20260509104502 | 12 | 253 | 9.7 | 14.5 | 0.00 | 0.00 | 0.00 | 66 | 1011.5 |
| 20260509103106 | 12 | 272 | 9.7 | 16.1 | 0.00 | 0.00 | 0.00 | 65 | 1011.6 |
| 20260509103001 | 12 | 260 | 11.3 | 16.1 | 0.00 | 0.00 | 0.00 | 65 | 1011.7 |
| 20260509101624 | 12 | 271 | 8.0 | 14.5 | 0.00 | 0.00 | 0.00 | 65 | 1011.7 |
| 20260509100100 | 12 | 272 | 6.4 | 14.5 | 0.00 | 0.00 | 0.00 | 65 | 1011.8 |
| 20260509094603 | 12 | 269 | 11.3 | 16.1 | 0.00 | 0.00 | 0.00 | 64 | 1011.8 |
| 20260509093104 | 12 | 268 | 11.3 | 16.1 | 0.00 | 0.00 | 0.00 | 64 | 1011.9 |
| 20260509091552 | 11 | 269 | 9.7 | 12.9 | 0.00 | 0.00 | 0.00 | 65 | 1012.0 |
| 20260509090101 | 11 | 246 | 8.0 | 12.9 | 0.00 | 0.00 | 0.00 | 63 | 1012.1 |
| 20260509084550 | 11 | 277 | 9.7 | 16.1 | 0.00 | 0.00 | 0.00 | 62 | 1012.1 |
| 20260509083050 | 11 | 271 | 9.7 | 16.1 | 0.00 | 0.00 | 0.00 | 63 | 1012.1 |
| 20260509081555 | 11 | 252 | 11.3 | 16.1 | 0.00 | 0.00 | 0.00 | 62 | 1012.1 |
| 20260509080049 | 11 | 261 | 9.7 | 14.5 | 0.00 | 0.00 | 0.00 | 62 | 1012.2 |
| 20260509074549 | 11 | 275 | 11.3 | 14.5 | 0.00 | 0.00 | 0.00 | 61 | 1012.3 |
| 20260509073054 | 11 | 249 | 9.7 | 14.5 | 0.00 | 0.00 | 0.00 | 62 | 1012.6 |
| 20260509071550 | 11 | 259 | 9.7 | 12.9 | 0.00 | 0.00 | 0.00 | 64 | 1012.8 |